createdAt,value
2019-04-28T01:06:47.024Z,17
2019-04-28T01:07:47.081Z,16.1
2019-04-28T01:08:47.256Z,20.9
2019-04-28T01:11:47.435Z,20.299999
2019-04-28T01:12:47.518Z,21.200001
2019-04-28T01:13:47.516Z,22.4
2019-04-28T01:57:49.871Z,21.6
2019-04-28T02:02:50.486Z,21.200001
2019-04-28T02:03:50.276Z,19.799999
2019-04-28T03:46:57.251Z,21.4
2019-04-28T03:47:57.139Z,21.700001
2019-04-28T03:48:57.192Z,16.6
2019-04-28T04:03:00.482Z,25.1
2019-04-28T04:04:01.170Z,17.200001
2019-04-28T04:06:00.693Z,27.5
2019-04-28T04:07:01.431Z,22.200001
2019-04-28T04:08:00.752Z,19.700001
2019-04-28T04:10:00.680Z,21.1
2019-04-28T04:12:00.300Z,24
2019-04-28T04:14:01.550Z,21.4
2019-04-28T04:16:01.513Z,20.1
2019-04-28T05:38:04.938Z,19.4
2019-04-28T05:39:04.988Z,20.299999
2019-04-28T05:40:05.063Z,20.9
2019-04-28T05:41:05.127Z,21.200001
2019-04-28T05:50:05.389Z,25.700001
2019-04-28T05:51:05.414Z,22.4
2019-04-28T05:52:05.416Z,18.9
2019-04-28T05:55:05.496Z,21.200001
2019-04-28T05:56:05.538Z,22
2019-04-28T05:57:05.536Z,22.799999
2019-04-28T05:58:05.548Z,18.700001
2019-04-28T05:59:05.574Z,18.299999
2019-04-28T06:00:05.611Z,20.299999
2019-04-28T06:07:06.048Z,19.799999
2019-04-28T06:08:06.043Z,21.4
2019-04-28T06:09:06.036Z,21.799999
2019-04-28T06:29:06.667Z,20
2019-04-28T06:30:06.743Z,23.9
2019-04-28T07:42:09.568Z,21.799999
2019-04-28T07:43:09.616Z,20.9
2019-04-28T07:58:10.179Z,15.4
2019-04-28T07:59:10.224Z,18
2019-04-28T09:06:13.228Z,16.299999
2019-04-28T09:07:13.301Z,14
2019-04-28T09:08:13.323Z,13.5
2019-04-28T09:23:13.866Z,13.7
2019-04-28T09:29:14.082Z,12.5
2019-04-28T11:12:18.922Z,7.5
2019-04-28T11:13:18.967Z,7.9
2019-04-28T11:14:18.984Z,10.1
2019-04-28T11:15:19.009Z,9.7
2019-04-28T11:16:19.062Z,10.6
2019-04-28T11:17:19.113Z,9.1
2019-04-28T11:18:19.136Z,9.1
2019-04-28T11:19:19.176Z,7.3
2019-04-28T11:20:19.233Z,7.8
2019-04-28T13:49:27.102Z,5.6
2019-04-28T14:03:28.123Z,4
2019-04-28T14:04:26.836Z,4.8
2019-04-28T14:05:26.892Z,4.5
2019-04-28T14:06:28.323Z,4.1
2019-04-28T14:07:28.039Z,6.1
2019-04-28T14:08:27.063Z,3.7
2019-04-28T14:09:27.106Z,4.9
2019-04-28T14:10:27.225Z,5.6
2019-04-28T14:11:27.169Z,6.2
2019-04-28T14:12:27.213Z,4.9
2019-04-28T14:13:27.251Z,5.7
2019-04-28T14:14:27.327Z,5
2019-04-28T14:15:27.345Z,4.6
2019-04-28T14:16:27.365Z,5.2
2019-04-28T14:17:27.491Z,5
2019-04-28T14:18:27.516Z,3.9
2019-04-28T14:19:27.530Z,5.5
2019-04-28T14:20:27.553Z,5.2
2019-04-28T14:21:27.567Z,3.9
2019-04-28T14:22:27.615Z,5.9
2019-04-28T14:23:27.642Z,6.1
2019-04-28T14:24:27.848Z,4.1
2019-04-28T14:25:27.678Z,5.6
2019-04-28T14:26:27.720Z,6.3
2019-04-28T14:27:27.746Z,4.8
2019-04-28T14:28:27.766Z,5.1
2019-04-28T14:29:27.835Z,6.3
2019-04-28T14:30:27.885Z,5.4
2019-04-28T14:31:27.939Z,5.9
2019-04-28T14:32:28.039Z,5.4
2019-04-28T14:33:27.964Z,5.2
2019-04-28T14:34:27.977Z,4.2
2019-04-28T14:35:28.052Z,4.5
2019-04-28T14:36:41.007Z,4.6
2019-04-28T14:38:28.137Z,4.5
2019-04-28T14:39:28.139Z,5.1
2019-04-28T14:40:28.246Z,5.7
2019-04-28T14:41:28.358Z,6.2
2019-04-28T14:42:28.363Z,6.5
2019-04-28T14:43:28.413Z,5
2019-04-28T14:44:28.449Z,6.2
2019-04-28T14:45:28.524Z,4.4
2019-04-28T14:46:28.536Z,6
2019-04-28T14:47:28.564Z,6.1
2019-04-28T14:48:28.696Z,4.9
2019-04-28T14:50:28.742Z,5.6
2019-04-28T14:51:28.774Z,5.1
2019-04-28T14:52:28.785Z,5.6
2019-04-28T16:56:36.367Z,8.1
2019-04-28T16:57:35.397Z,6.4
2019-04-28T16:58:35.476Z,7.5
2019-04-28T16:59:35.595Z,7.8
2019-04-28T17:02:35.670Z,6.3
2019-04-28T17:03:35.759Z,8.1
2019-04-28T18:51:43.197Z,10.6
2019-04-28T18:52:43.309Z,11.9
2019-04-28T18:53:44.561Z,11.9
2019-04-28T18:54:44.445Z,10.7
2019-04-28T18:55:43.551Z,10.2
2019-04-28T18:56:43.787Z,11.8
2019-04-28T18:57:43.929Z,11.1
2019-04-28T18:58:43.860Z,9.6
2019-04-28T18:59:43.932Z,10.5
2019-04-28T19:00:44.033Z,9.7
2019-04-28T19:01:44.153Z,11.1
2019-04-28T19:02:44.242Z,10.8
2019-04-28T19:03:44.323Z,9.2
2019-04-28T19:04:44.405Z,11.4
2019-04-28T19:05:44.692Z,10.4
2019-04-28T19:06:44.758Z,12.1
2019-04-28T19:07:44.784Z,11.4
2019-04-28T19:08:49.151Z,12.1
2019-04-28T19:10:44.834Z,10.3
2019-04-28T19:11:44.941Z,12.4
2019-04-28T19:12:45.131Z,9.7
2019-04-28T20:28:52.182Z,16.299999
2019-04-28T20:29:52.283Z,15.8
2019-04-28T20:30:52.414Z,16
2019-04-28T20:34:52.739Z,13.8
2019-04-28T20:35:52.856Z,14.8
2019-04-28T20:36:52.974Z,14.4
2019-04-28T20:42:53.483Z,16.799999
2019-04-28T20:43:53.578Z,15.1
2019-04-28T20:44:53.712Z,16.200001
2019-04-28T20:57:54.895Z,18.5
2019-04-28T20:58:54.970Z,18.299999
2019-04-28T20:59:55.036Z,19.299999
2019-04-28T21:26:57.633Z,23.5
2019-04-28T21:27:57.727Z,22.4
2019-04-28T21:34:58.476Z,21.700001
2019-04-28T21:35:58.550Z,19.799999
2019-04-28T21:36:58.642Z,20.1
2019-04-28T21:43:59.328Z,19.4
2019-04-28T21:44:59.406Z,21.700001
2019-04-28T22:06:01.267Z,19.9
2019-04-28T22:07:01.347Z,19.4
2019-04-28T22:08:01.419Z,19.700001
2019-04-28T22:11:01.691Z,19.4
2019-04-28T22:12:01.766Z,19.299999
2019-04-28T22:13:01.834Z,20.200001
2019-04-28T22:14:01.964Z,20.799999
2019-04-28T22:15:02.017Z,19.9
2019-04-28T22:16:03.092Z,21.1
2019-04-28T22:17:02.163Z,19.6
2019-04-28T22:18:02.263Z,20.5
2019-04-28T22:22:02.587Z,19.799999
2019-04-28T22:23:02.652Z,21.299999
2019-04-28T22:24:02.750Z,21.200001
2019-04-28T22:25:02.830Z,20.9
2019-04-28T22:26:02.923Z,19.799999
2019-04-28T22:27:02.983Z,18.799999
2019-04-28T22:28:03.064Z,20
2019-04-28T22:32:03.656Z,21.200001
2019-04-28T22:33:03.577Z,22.1
2019-04-28T22:34:03.684Z,20.4
2019-04-28T22:35:03.846Z,20.4
2019-04-28T22:36:03.820Z,19.700001
2019-04-28T22:37:03.896Z,18.799999
2019-04-28T22:38:03.962Z,19
2019-04-28T22:42:05.161Z,19.1
2019-04-28T22:43:04.259Z,20.1
2019-04-28T22:44:04.340Z,20.200001
2019-04-28T22:45:04.439Z,20.9
2019-04-28T22:46:04.530Z,19.9
2019-04-28T22:47:04.604Z,20.700001
2019-04-28T22:48:04.672Z,20.700001
2019-04-28T22:51:04.988Z,21.5
2019-04-28T22:52:05.124Z,22.299999
2019-04-28T22:53:05.222Z,23.4
2019-04-28T22:54:05.281Z,21.6
2019-04-28T22:55:05.421Z,23.1
2019-04-28T22:56:05.564Z,21.5
2019-04-28T22:57:05.683Z,21.299999
2019-04-28T22:58:05.802Z,22.299999
2019-04-28T23:02:06.275Z,25.1
2019-04-28T23:03:06.403Z,24.799999
2019-04-28T23:04:06.552Z,27.1
2019-04-28T23:05:06.690Z,23.700001
2019-04-28T23:06:06.798Z,27.1
2019-04-28T23:07:06.917Z,24.1
2019-04-28T23:08:07.062Z,25.200001
2019-04-28T23:11:07.318Z,25.1
2019-04-28T23:12:07.450Z,25
2019-04-28T23:13:07.598Z,24.4
2019-04-28T23:14:07.606Z,27.5
2019-04-28T23:15:07.738Z,25.799999
2019-04-28T23:16:07.866Z,24.700001
2019-04-28T23:17:07.962Z,27
2019-04-28T23:18:08.059Z,25.200001
2019-04-28T23:22:08.599Z,24
2019-04-28T23:23:08.512Z,21.5
2019-04-28T23:24:08.585Z,24.200001
2019-04-28T23:25:08.685Z,23.9
2019-04-28T23:26:08.851Z,25
2019-04-28T23:27:08.744Z,23.4
2019-04-28T23:28:08.944Z,24.9
2019-04-28T23:32:09.163Z,26
2019-04-28T23:33:09.222Z,23
2019-04-28T23:34:09.281Z,22
2019-04-28T23:35:09.372Z,24.200001
2019-04-28T23:36:09.458Z,22.6
2019-04-28T23:37:09.541Z,23.299999
2019-04-28T23:38:09.615Z,23.9
2019-04-28T23:42:09.959Z,23.5
2019-04-28T23:43:10.093Z,22.6
2019-04-28T23:44:10.168Z,22.9
2019-04-28T23:45:12.186Z,22.6
2019-04-28T23:46:11.317Z,24.700001
2019-04-28T23:47:10.416Z,21.4
2019-04-28T23:48:10.517Z,23.9
2019-04-28T23:51:10.740Z,25.700001
2019-04-28T23:52:10.861Z,26.799999
2019-04-28T23:53:10.945Z,24.799999
2019-04-28T23:54:11.046Z,29
2019-04-28T23:55:11.133Z,27.1
2019-04-28T23:56:11.178Z,28.200001
2019-04-28T23:57:11.282Z,28.299999
2019-04-28T23:58:11.334Z,27.9
